sensor_id;sensor_type;location;lat;lon;timestamp;P1;durP1;ratioP1;P2;durP2;ratioP2
69956;SDS011;57283;54.816;9.482;2023-05-08T00:00:36;7.22;;;2.92;;
69956;SDS011;57283;54.816;9.482;2023-05-08T00:03:04;6.43;;;2.58;;
69956;SDS011;57283;54.816;9.482;2023-05-08T00:05:31;6.43;;;2.90;;
69956;SDS011;57283;54.816;9.482;2023-05-08T00:07:59;8.23;;;2.63;;
69956;SDS011;57283;54.816;9.482;2023-05-08T00:10:28;6.65;;;2.50;;
69956;SDS011;57283;54.816;9.482;2023-05-08T00:12:56;7.50;;;2.60;;
69956;SDS011;57283;54.816;9.482;2023-05-08T00:15:24;6.28;;;2.85;;
69956;SDS011;57283;54.816;9.482;2023-05-08T00:17:52;6.13;;;2.78;;
69956;SDS011;57283;54.816;9.482;2023-05-08T00:20:19;10.17;;;2.93;;
69956;SDS011;57283;54.816;9.482;2023-05-08T00:22:47;4.75;;;2.38;;
69956;SDS011;57283;54.816;9.482;2023-05-08T00:25:15;6.47;;;2.90;;
69956;SDS011;57283;54.816;9.482;2023-05-08T00:27:44;8.77;;;2.97;;
69956;SDS011;57283;54.816;9.482;2023-05-08T00:30:11;7.88;;;3.10;;
69956;SDS011;57283;54.816;9.482;2023-05-08T00:32:39;6.33;;;2.40;;
69956;SDS011;57283;54.816;9.482;2023-05-08T00:35:07;6.50;;;2.95;;
69956;SDS011;57283;54.816;9.482;2023-05-08T00:37:35;7.97;;;2.92;;
69956;SDS011;57283;54.816;9.482;2023-05-08T00:40:06;6.15;;;2.78;;
69956;SDS011;57283;54.816;9.482;2023-05-08T00:42:34;4.82;;;2.45;;
69956;SDS011;57283;54.816;9.482;2023-05-08T00:45:03;6.10;;;2.77;;
69956;SDS011;57283;54.816;9.482;2023-05-08T00:47:31;8.10;;;3.05;;
69956;SDS011;57283;54.816;9.482;2023-05-08T00:49:59;7.35;;;2.90;;
69956;SDS011;57283;54.816;9.482;2023-05-08T00:52:27;7.72;;;2.90;;
69956;SDS011;57283;54.816;9.482;2023-05-08T00:54:55;6.47;;;2.92;;
69956;SDS011;57283;54.816;9.482;2023-05-08T00:57:23;7.03;;;2.80;;
69956;SDS011;57283;54.816;9.482;2023-05-08T00:59:51;5.38;;;2.80;;
69956;SDS011;57283;54.816;9.482;2023-05-08T01:02:20;6.03;;;2.70;;
69956;SDS011;57283;54.816;9.482;2023-05-08T01:04:48;9.05;;;2.80;;
69956;SDS011;57283;54.816;9.482;2023-05-08T01:07:17;9.35;;;3.15;;
69956;SDS011;57283;54.816;9.482;2023-05-08T01:09:44;6.50;;;3.10;;
69956;SDS011;57283;54.816;9.482;2023-05-08T01:12:14;7.95;;;2.63;;
69956;SDS011;57283;54.816;9.482;2023-05-08T01:14:50;5.68;;;2.60;;
69956;SDS011;57283;54.816;9.482;2023-05-08T01:17:22;7.38;;;2.92;;
69956;SDS011;57283;54.816;9.482;2023-05-08T01:19:55;6.68;;;3.00;;
69956;SDS011;57283;54.816;9.482;2023-05-08T01:22:30;6.53;;;2.90;;
69956;SDS011;57283;54.816;9.482;2023-05-08T01:25:15;7.22;;;3.35;;
69956;SDS011;57283;54.816;9.482;2023-05-08T01:28:01;6.28;;;2.90;;
69956;SDS011;57283;54.816;9.482;2023-05-08T01:30:45;6.85;;;3.03;;
69956;SDS011;57283;54.816;9.482;2023-05-08T01:33:18;7.50;;;2.75;;
69956;SDS011;57283;54.816;9.482;2023-05-08T01:35:48;6.53;;;2.80;;
69956;SDS011;57283;54.816;9.482;2023-05-08T01:38:18;6.75;;;2.90;;
69956;SDS011;57283;54.816;9.482;2023-05-08T01:40:50;4.68;;;2.42;;
69956;SDS011;57283;54.816;9.482;2023-05-08T01:43:21;7.05;;;3.13;;
69956;SDS011;57283;54.816;9.482;2023-05-08T01:45:50;5.47;;;2.97;;
69956;SDS011;57283;54.816;9.482;2023-05-08T01:48:23;7.60;;;2.83;;
69956;SDS011;57283;54.816;9.482;2023-05-08T01:50:54;7.07;;;2.92;;
69956;SDS011;57283;54.816;9.482;2023-05-08T01:53:23;7.30;;;2.95;;
69956;SDS011;57283;54.816;9.482;2023-05-08T01:55:52;5.07;;;2.50;;
69956;SDS011;57283;54.816;9.482;2023-05-08T01:58:20;5.78;;;2.90;;
69956;SDS011;57283;54.816;9.482;2023-05-08T02:00:49;5.53;;;2.93;;
69956;SDS011;57283;54.816;9.482;2023-05-08T02:03:17;5.90;;;2.80;;
69956;SDS011;57283;54.816;9.482;2023-05-08T02:05:48;6.13;;;3.00;;
69956;SDS011;57283;54.816;9.482;2023-05-08T02:08:17;6.95;;;2.75;;
69956;SDS011;57283;54.816;9.482;2023-05-08T02:10:45;6.03;;;2.78;;
69956;SDS011;57283;54.816;9.482;2023-05-08T02:13:17;6.93;;;3.13;;
69956;SDS011;57283;54.816;9.482;2023-05-08T02:15:46;6.32;;;2.92;;
69956;SDS011;57283;54.816;9.482;2023-05-08T02:18:14;7.13;;;3.13;;
69956;SDS011;57283;54.816;9.482;2023-05-08T02:20:43;6.55;;;3.03;;
69956;SDS011;57283;54.816;9.482;2023-05-08T02:23:12;7.35;;;2.95;;
69956;SDS011;57283;54.816;9.482;2023-05-08T02:25:41;6.20;;;3.20;;
69956;SDS011;57283;54.816;9.482;2023-05-08T02:28:09;7.00;;;3.20;;
69956;SDS011;57283;54.816;9.482;2023-05-08T02:30:37;6.63;;;3.10;;
69956;SDS011;57283;54.816;9.482;2023-05-08T02:33:05;6.40;;;3.13;;
69956;SDS011;57283;54.816;9.482;2023-05-08T02:35:33;5.65;;;2.72;;
69956;SDS011;57283;54.816;9.482;2023-05-08T02:38:01;7.27;;;2.93;;
69956;SDS011;57283;54.816;9.482;2023-05-08T02:40:31;7.30;;;3.00;;
69956;SDS011;57283;54.816;9.482;2023-05-08T02:42:58;6.57;;;2.78;;
69956;SDS011;57283;54.816;9.482;2023-05-08T02:45:27;7.53;;;3.17;;
69956;SDS011;57283;54.816;9.482;2023-05-08T02:47:59;5.60;;;2.60;;
69956;SDS011;57283;54.816;9.482;2023-05-08T02:50:30;5.60;;;2.67;;
69956;SDS011;57283;54.816;9.482;2023-05-08T02:53:01;5.15;;;2.38;;
69956;SDS011;57283;54.816;9.482;2023-05-08T02:55:34;6.20;;;2.72;;
69956;SDS011;57283;54.816;9.482;2023-05-08T02:58:08;6.90;;;2.78;;
69956;SDS011;57283;54.816;9.482;2023-05-08T03:00:41;7.47;;;2.90;;
69956;SDS011;57283;54.816;9.482;2023-05-08T03:03:10;6.63;;;2.70;;
69956;SDS011;57283;54.816;9.482;2023-05-08T03:05:39;6.97;;;2.72;;
69956;SDS011;57283;54.816;9.482;2023-05-08T03:08:10;6.03;;;2.67;;
69956;SDS011;57283;54.816;9.482;2023-05-08T03:10:42;5.53;;;2.88;;
69956;SDS011;57283;54.816;9.482;2023-05-08T03:13:11;5.18;;;2.45;;
69956;SDS011;57283;54.816;9.482;2023-05-08T03:15:40;5.77;;;2.83;;
69956;SDS011;57283;54.816;9.482;2023-05-08T03:18:09;4.88;;;2.47;;
69956;SDS011;57283;54.816;9.482;2023-05-08T03:20:38;5.25;;;2.70;;
69956;SDS011;57283;54.816;9.482;2023-05-08T03:23:07;6.28;;;3.00;;
69956;SDS011;57283;54.816;9.482;2023-05-08T03:25:35;8.02;;;2.70;;
69956;SDS011;57283;54.816;9.482;2023-05-08T03:28:05;7.33;;;3.10;;
69956;SDS011;57283;54.816;9.482;2023-05-08T03:30:33;5.20;;;2.70;;
69956;SDS011;57283;54.816;9.482;2023-05-08T03:33:02;5.35;;;2.70;;
69956;SDS011;57283;54.816;9.482;2023-05-08T03:35:30;5.53;;;3.15;;
69956;SDS011;57283;54.816;9.482;2023-05-08T03:37:58;5.93;;;2.72;;
69956;SDS011;57283;54.816;9.482;2023-05-08T03:40:26;5.33;;;2.90;;
69956;SDS011;57283;54.816;9.482;2023-05-08T03:42:53;4.75;;;2.35;;
69956;SDS011;57283;54.816;9.482;2023-05-08T03:45:22;5.20;;;2.65;;
69956;SDS011;57283;54.816;9.482;2023-05-08T03:47:50;5.20;;;2.80;;
69956;SDS011;57283;54.816;9.482;2023-05-08T03:50:19;5.55;;;2.97;;
69956;SDS011;57283;54.816;9.482;2023-05-08T03:52:47;6.23;;;2.80;;
69956;SDS011;57283;54.816;9.482;2023-05-08T03:55:14;5.57;;;2.83;;
69956;SDS011;57283;54.816;9.482;2023-05-08T03:57:44;5.45;;;3.10;;
69956;SDS011;57283;54.816;9.482;2023-05-08T04:00:13;6.38;;;3.10;;
69956;SDS011;57283;54.816;9.482;2023-05-08T04:02:49;6.55;;;3.22;;
69956;SDS011;57283;54.816;9.482;2023-05-08T04:05:20;5.93;;;3.03;;
69956;SDS011;57283;54.816;9.482;2023-05-08T04:07:50;6.43;;;3.00;;
69956;SDS011;57283;54.816;9.482;2023-05-08T04:10:20;5.78;;;2.80;;
69956;SDS011;57283;54.816;9.482;2023-05-08T04:12:53;5.35;;;2.70;;
69956;SDS011;57283;54.816;9.482;2023-05-08T04:15:25;7.38;;;3.20;;
69956;SDS011;57283;54.816;9.482;2023-05-08T04:17:56;6.20;;;2.63;;
69956;SDS011;57283;54.816;9.482;2023-05-08T04:20:26;4.90;;;2.60;;
69956;SDS011;57283;54.816;9.482;2023-05-08T04:22:54;6.00;;;2.97;;
69956;SDS011;57283;54.816;9.482;2023-05-08T04:25:22;6.32;;;2.70;;
69956;SDS011;57283;54.816;9.482;2023-05-08T04:27:49;5.55;;;2.90;;
69956;SDS011;57283;54.816;9.482;2023-05-08T04:30:17;5.83;;;2.67;;
69956;SDS011;57283;54.816;9.482;2023-05-08T04:32:45;5.10;;;2.80;;
69956;SDS011;57283;54.816;9.482;2023-05-08T04:35:15;7.15;;;2.65;;
69956;SDS011;57283;54.816;9.482;2023-05-08T04:37:43;5.32;;;2.65;;
69956;SDS011;57283;54.816;9.482;2023-05-08T04:40:12;5.80;;;2.80;;
69956;SDS011;57283;54.816;9.482;2023-05-08T04:42:39;5.33;;;2.77;;
69956;SDS011;57283;54.816;9.482;2023-05-08T04:45:08;5.22;;;2.80;;
69956;SDS011;57283;54.816;9.482;2023-05-08T04:47:36;5.68;;;2.92;;
69956;SDS011;57283;54.816;9.482;2023-05-08T04:50:04;5.10;;;2.80;;
69956;SDS011;57283;54.816;9.482;2023-05-08T04:52:33;5.25;;;2.72;;
69956;SDS011;57283;54.816;9.482;2023-05-08T04:55:01;5.90;;;3.37;;
69956;SDS011;57283;54.816;9.482;2023-05-08T04:57:28;5.65;;;2.88;;
69956;SDS011;57283;54.816;9.482;2023-05-08T04:59:56;6.22;;;2.78;;
69956;SDS011;57283;54.816;9.482;2023-05-08T05:02:24;5.97;;;3.15;;
69956;SDS011;57283;54.816;9.482;2023-05-08T05:04:52;5.43;;;2.80;;
69956;SDS011;57283;54.816;9.482;2023-05-08T05:07:19;5.50;;;2.80;;
69956;SDS011;57283;54.816;9.482;2023-05-08T05:09:48;5.47;;;3.10;;
69956;SDS011;57283;54.816;9.482;2023-05-08T05:12:16;6.93;;;3.70;;
69956;SDS011;57283;54.816;9.482;2023-05-08T05:14:43;5.68;;;3.22;;
69956;SDS011;57283;54.816;9.482;2023-05-08T05:17:11;5.90;;;3.40;;
69956;SDS011;57283;54.816;9.482;2023-05-08T05:19:38;5.97;;;3.47;;
69956;SDS011;57283;54.816;9.482;2023-05-08T05:22:06;6.55;;;3.45;;
69956;SDS011;57283;54.816;9.482;2023-05-08T05:24:34;4.90;;;3.33;;
69956;SDS011;57283;54.816;9.482;2023-05-08T05:27:03;5.18;;;3.42;;
69956;SDS011;57283;54.816;9.482;2023-05-08T05:29:31;5.13;;;3.67;;
69956;SDS011;57283;54.816;9.482;2023-05-08T05:31:58;6.43;;;3.87;;
69956;SDS011;57283;54.816;9.482;2023-05-08T05:34:26;5.47;;;3.67;;
69956;SDS011;57283;54.816;9.482;2023-05-08T05:36:54;5.15;;;3.47;;
69956;SDS011;57283;54.816;9.482;2023-05-08T05:39:21;5.22;;;3.60;;
69956;SDS011;57283;54.816;9.482;2023-05-08T05:41:49;5.28;;;3.53;;
69956;SDS011;57283;54.816;9.482;2023-05-08T05:44:18;6.10;;;3.77;;
69956;SDS011;57283;54.816;9.482;2023-05-08T05:46:45;5.70;;;3.67;;
69956;SDS011;57283;54.816;9.482;2023-05-08T05:49:13;5.93;;;3.67;;
69956;SDS011;57283;54.816;9.482;2023-05-08T05:51:41;5.65;;;4.10;;
69956;SDS011;57283;54.816;9.482;2023-05-08T05:54:08;6.05;;;3.83;;
69956;SDS011;57283;54.816;9.482;2023-05-08T05:56:36;5.57;;;3.17;;
69956;SDS011;57283;54.816;9.482;2023-05-08T05:59:03;6.85;;;3.90;;
69956;SDS011;57283;54.816;9.482;2023-05-08T06:01:33;6.47;;;3.78;;
69956;SDS011;57283;54.816;9.482;2023-05-08T06:04:00;5.00;;;3.70;;
69956;SDS011;57283;54.816;9.482;2023-05-08T06:06:28;5.57;;;3.88;;
69956;SDS011;57283;54.816;9.482;2023-05-08T06:08:57;4.93;;;3.50;;
69956;SDS011;57283;54.816;9.482;2023-05-08T06:11:25;5.78;;;3.92;;
69956;SDS011;57283;54.816;9.482;2023-05-08T06:13:52;5.55;;;3.60;;
69956;SDS011;57283;54.816;9.482;2023-05-08T06:16:20;6.22;;;3.80;;
69956;SDS011;57283;54.816;9.482;2023-05-08T06:18:49;5.57;;;3.90;;
69956;SDS011;57283;54.816;9.482;2023-05-08T06:21:20;5.40;;;3.87;;
69956;SDS011;57283;54.816;9.482;2023-05-08T06:23:47;5.18;;;3.80;;
69956;SDS011;57283;54.816;9.482;2023-05-08T06:26:15;5.72;;;3.80;;
69956;SDS011;57283;54.816;9.482;2023-05-08T06:28:43;5.82;;;4.20;;
69956;SDS011;57283;54.816;9.482;2023-05-08T06:31:10;5.25;;;3.70;;
69956;SDS011;57283;54.816;9.482;2023-05-08T06:33:38;5.77;;;4.00;;
69956;SDS011;57283;54.816;9.482;2023-05-08T06:36:07;6.25;;;4.35;;
69956;SDS011;57283;54.816;9.482;2023-05-08T06:38:35;5.00;;;4.15;;
69956;SDS011;57283;54.816;9.482;2023-05-08T06:41:02;5.10;;;3.85;;
69956;SDS011;57283;54.816;9.482;2023-05-08T06:43:30;7.32;;;4.00;;
69956;SDS011;57283;54.816;9.482;2023-05-08T06:45:57;5.77;;;4.20;;
69956;SDS011;57283;54.816;9.482;2023-05-08T06:48:25;5.90;;;4.32;;
69956;SDS011;57283;54.816;9.482;2023-05-08T06:50:54;5.70;;;4.05;;
69956;SDS011;57283;54.816;9.482;2023-05-08T06:53:23;5.47;;;4.10;;
69956;SDS011;57283;54.816;9.482;2023-05-08T06:55:51;6.55;;;4.25;;
69956;SDS011;57283;54.816;9.482;2023-05-08T06:58:19;6.57;;;4.20;;
69956;SDS011;57283;54.816;9.482;2023-05-08T07:00:46;6.05;;;4.15;;
69956;SDS011;57283;54.816;9.482;2023-05-08T07:03:14;6.00;;;4.15;;
69956;SDS011;57283;54.816;9.482;2023-05-08T07:05:41;5.50;;;4.40;;
69956;SDS011;57283;54.816;9.482;2023-05-08T07:08:09;5.97;;;4.32;;
69956;SDS011;57283;54.816;9.482;2023-05-08T07:10:38;5.90;;;4.37;;
69956;SDS011;57283;54.816;9.482;2023-05-08T07:13:06;5.72;;;4.30;;
69956;SDS011;57283;54.816;9.482;2023-05-08T07:15:33;6.47;;;4.38;;
69956;SDS011;57283;54.816;9.482;2023-05-08T07:18:01;5.45;;;4.30;;
69956;SDS011;57283;54.816;9.482;2023-05-08T07:20:28;5.72;;;4.72;;
69956;SDS011;57283;54.816;9.482;2023-05-08T07:22:56;6.73;;;4.73;;
69956;SDS011;57283;54.816;9.482;2023-05-08T07:25:24;5.70;;;4.43;;
69956;SDS011;57283;54.816;9.482;2023-05-08T07:27:53;5.80;;;4.45;;
69956;SDS011;57283;54.816;9.482;2023-05-08T07:30:21;6.15;;;4.65;;
69956;SDS011;57283;54.816;9.482;2023-05-08T07:32:48;6.78;;;4.45;;
69956;SDS011;57283;54.816;9.482;2023-05-08T07:35:16;6.60;;;4.70;;
69956;SDS011;57283;54.816;9.482;2023-05-08T07:37:43;6.03;;;4.43;;
69956;SDS011;57283;54.816;9.482;2023-05-08T07:40:11;6.72;;;4.80;;
69956;SDS011;57283;54.816;9.482;2023-05-08T07:42:39;5.90;;;4.50;;
69956;SDS011;57283;54.816;9.482;2023-05-08T07:45:09;6.45;;;4.97;;
69956;SDS011;57283;54.816;9.482;2023-05-08T07:47:38;6.07;;;4.67;;
69956;SDS011;57283;54.816;9.482;2023-05-08T07:50:14;6.32;;;4.75;;
69956;SDS011;57283;54.816;9.482;2023-05-08T07:52:42;6.38;;;4.82;;
69956;SDS011;57283;54.816;9.482;2023-05-08T07:55:09;6.18;;;4.32;;
69956;SDS011;57283;54.816;9.482;2023-05-08T07:57:37;6.78;;;4.90;;
69956;SDS011;57283;54.816;9.482;2023-05-08T08:00:06;6.43;;;4.53;;
69956;SDS011;57283;54.816;9.482;2023-05-08T08:02:35;6.38;;;4.40;;
69956;SDS011;57283;54.816;9.482;2023-05-08T08:05:03;6.10;;;4.32;;
69956;SDS011;57283;54.816;9.482;2023-05-08T08:07:31;7.50;;;4.40;;
69956;SDS011;57283;54.816;9.482;2023-05-08T08:09:58;6.80;;;4.68;;
69956;SDS011;57283;54.816;9.482;2023-05-08T08:12:26;6.93;;;4.60;;
69956;SDS011;57283;54.816;9.482;2023-05-08T08:14:54;6.13;;;4.72;;
69956;SDS011;57283;54.816;9.482;2023-05-08T08:17:22;5.68;;;4.53;;
69956;SDS011;57283;54.816;9.482;2023-05-08T08:19:54;5.38;;;4.18;;
69956;SDS011;57283;54.816;9.482;2023-05-08T08:22:22;6.63;;;4.78;;
69956;SDS011;57283;54.816;9.482;2023-05-08T08:24:50;7.53;;;5.23;;
69956;SDS011;57283;54.816;9.482;2023-05-08T08:27:20;6.97;;;5.20;;
69956;SDS011;57283;54.816;9.482;2023-05-08T08:29:48;6.07;;;5.05;;
69956;SDS011;57283;54.816;9.482;2023-05-08T08:32:23;6.22;;;5.07;;
69956;SDS011;57283;54.816;9.482;2023-05-08T08:34:51;6.90;;;5.85;;
69956;SDS011;57283;54.816;9.482;2023-05-08T08:37:20;7.10;;;5.80;;
69956;SDS011;57283;54.816;9.482;2023-05-08T08:39:48;6.05;;;5.38;;
69956;SDS011;57283;54.816;9.482;2023-05-08T08:42:16;5.97;;;5.13;;
69956;SDS011;57283;54.816;9.482;2023-05-08T08:44:43;6.55;;;5.38;;
69956;SDS011;57283;54.816;9.482;2023-05-08T08:47:11;6.50;;;5.80;;
69956;SDS011;57283;54.816;9.482;2023-05-08T08:49:41;6.20;;;5.37;;
69956;SDS011;57283;54.816;9.482;2023-05-08T08:52:10;6.72;;;5.43;;
69956;SDS011;57283;54.816;9.482;2023-05-08T08:54:43;6.55;;;5.35;;
69956;SDS011;57283;54.816;9.482;2023-05-08T08:57:13;6.10;;;5.35;;
69956;SDS011;57283;54.816;9.482;2023-05-08T08:59:41;6.13;;;5.53;;
69956;SDS011;57283;54.816;9.482;2023-05-08T09:02:11;6.67;;;5.77;;
69956;SDS011;57283;54.816;9.482;2023-05-08T09:04:43;6.72;;;5.40;;
69956;SDS011;57283;54.816;9.482;2023-05-08T09:07:10;7.60;;;6.18;;
69956;SDS011;57283;54.816;9.482;2023-05-08T09:09:39;6.93;;;5.53;;
69956;SDS011;57283;54.816;9.482;2023-05-08T09:12:09;6.93;;;5.68;;
69956;SDS011;57283;54.816;9.482;2023-05-08T09:14:36;5.80;;;5.20;;
69956;SDS011;57283;54.816;9.482;2023-05-08T09:17:04;6.28;;;5.55;;
69956;SDS011;57283;54.816;9.482;2023-05-08T09:19:32;6.65;;;5.95;;
69956;SDS011;57283;54.816;9.482;2023-05-08T09:21:59;6.32;;;5.40;;
69956;SDS011;57283;54.816;9.482;2023-05-08T09:27:17;6.23;;;5.63;;
69956;SDS011;57283;54.816;9.482;2023-05-08T09:29:55;5.90;;;5.30;;
69956;SDS011;57283;54.816;9.482;2023-05-08T09:32:24;6.30;;;5.57;;
69956;SDS011;57283;54.816;9.482;2023-05-08T09:34:52;6.65;;;6.05;;
69956;SDS011;57283;54.816;9.482;2023-05-08T09:37:19;6.03;;;5.43;;
69956;SDS011;57283;54.816;9.482;2023-05-08T09:39:47;6.72;;;6.03;;
69956;SDS011;57283;54.816;9.482;2023-05-08T09:42:16;6.10;;;5.50;;
69956;SDS011;57283;54.816;9.482;2023-05-08T09:44:44;7.70;;;5.57;;
69956;SDS011;57283;54.816;9.482;2023-05-08T09:47:12;6.15;;;5.00;;
69956;SDS011;57283;54.816;9.482;2023-05-08T09:49:42;5.93;;;5.32;;
69956;SDS011;57283;54.816;9.482;2023-05-08T09:52:22;7.40;;;5.25;;
69956;SDS011;57283;54.816;9.482;2023-05-08T09:54:55;6.03;;;5.43;;
69956;SDS011;57283;54.816;9.482;2023-05-08T09:57:24;6.00;;;5.30;;
69956;SDS011;57283;54.816;9.482;2023-05-08T09:59:58;5.90;;;5.20;;
69956;SDS011;57283;54.816;9.482;2023-05-08T10:02:26;5.65;;;4.90;;
69956;SDS011;57283;54.816;9.482;2023-05-08T10:04:54;6.93;;;5.43;;
69956;SDS011;57283;54.816;9.482;2023-05-08T10:07:26;6.22;;;5.60;;
69956;SDS011;57283;54.816;9.482;2023-05-08T10:09:57;6.45;;;5.38;;
69956;SDS011;57283;54.816;9.482;2023-05-08T10:12:27;5.73;;;5.10;;
69956;SDS011;57283;54.816;9.482;2023-05-08T10:14:55;5.78;;;5.18;;
69956;SDS011;57283;54.816;9.482;2023-05-08T10:17:24;5.93;;;5.00;;
69956;SDS011;57283;54.816;9.482;2023-05-08T10:19:54;5.80;;;4.90;;
69956;SDS011;57283;54.816;9.482;2023-05-08T10:22:24;6.15;;;5.55;;
69956;SDS011;57283;54.816;9.482;2023-05-08T10:24:52;5.93;;;4.90;;
69956;SDS011;57283;54.816;9.482;2023-05-08T10:27:22;5.82;;;4.80;;
69956;SDS011;57283;54.816;9.482;2023-05-08T10:30:00;6.28;;;4.88;;
69956;SDS011;57283;54.816;9.482;2023-05-08T10:32:28;5.90;;;4.88;;
69956;SDS011;57283;54.816;9.482;2023-05-08T10:34:58;6.60;;;4.93;;
69956;SDS011;57283;54.816;9.482;2023-05-08T10:37:28;6.37;;;4.97;;
69956;SDS011;57283;54.816;9.482;2023-05-08T10:39:56;6.20;;;5.37;;
69956;SDS011;57283;54.816;9.482;2023-05-08T10:42:24;5.70;;;4.75;;
69956;SDS011;57283;54.816;9.482;2023-05-08T10:44:52;5.18;;;4.57;;
69956;SDS011;57283;54.816;9.482;2023-05-08T10:47:23;5.78;;;4.70;;
69956;SDS011;57283;54.816;9.482;2023-05-08T10:49:54;5.97;;;5.22;;
69956;SDS011;57283;54.816;9.482;2023-05-08T10:52:26;6.03;;;5.37;;
69956;SDS011;57283;54.816;9.482;2023-05-08T10:55:02;5.95;;;4.70;;
69956;SDS011;57283;54.816;9.482;2023-05-08T10:57:35;5.88;;;4.80;;
69956;SDS011;57283;54.816;9.482;2023-05-08T11:00:03;5.95;;;4.88;;
69956;SDS011;57283;54.816;9.482;2023-05-08T11:02:32;5.60;;;4.55;;
69956;SDS011;57283;54.816;9.482;2023-05-08T11:05:14;6.57;;;4.67;;
69956;SDS011;57283;54.816;9.482;2023-05-08T11:10:28;6.35;;;4.88;;
69956;SDS011;57283;54.816;9.482;2023-05-08T11:12:56;6.25;;;4.88;;
69956;SDS011;57283;54.816;9.482;2023-05-08T11:18:11;6.27;;;4.40;;
69956;SDS011;57283;54.816;9.482;2023-05-08T11:20:53;5.97;;;4.23;;
69956;SDS011;57283;54.816;9.482;2023-05-08T11:23:22;5.70;;;4.30;;
69956;SDS011;57283;54.816;9.482;2023-05-08T11:25:57;5.13;;;4.55;;
69956;SDS011;57283;54.816;9.482;2023-05-08T11:28:25;5.82;;;4.78;;
69956;SDS011;57283;54.816;9.482;2023-05-08T11:30:53;5.88;;;4.70;;
69956;SDS011;57283;54.816;9.482;2023-05-08T11:33:25;5.40;;;4.00;;
69956;SDS011;57283;54.816;9.482;2023-05-08T11:35:56;5.93;;;4.00;;
69956;SDS011;57283;54.816;9.482;2023-05-08T11:38:28;5.43;;;4.18;;
69956;SDS011;57283;54.816;9.482;2023-05-08T11:40:57;9.68;;;4.80;;
69956;SDS011;57283;54.816;9.482;2023-05-08T11:43:28;7.45;;;4.55;;
69956;SDS011;57283;54.816;9.482;2023-05-08T11:45:58;5.00;;;4.13;;
69956;SDS011;57283;54.816;9.482;2023-05-08T11:48:28;6.15;;;4.30;;
69956;SDS011;57283;54.816;9.482;2023-05-08T11:50:55;4.80;;;4.25;;
69956;SDS011;57283;54.816;9.482;2023-05-08T11:53:23;6.07;;;4.47;;
69956;SDS011;57283;54.816;9.482;2023-05-08T11:55:51;5.95;;;4.28;;
69956;SDS011;57283;54.816;9.482;2023-05-08T11:58:18;5.47;;;4.20;;
69956;SDS011;57283;54.816;9.482;2023-05-08T12:00:47;5.80;;;4.30;;
69956;SDS011;57283;54.816;9.482;2023-05-08T12:03:16;4.85;;;3.80;;
69956;SDS011;57283;54.816;9.482;2023-05-08T12:05:45;5.22;;;3.58;;
69956;SDS011;57283;54.816;9.482;2023-05-08T12:08:14;5.32;;;4.03;;
69956;SDS011;57283;54.816;9.482;2023-05-08T12:10:48;10.93;;;4.10;;
69956;SDS011;57283;54.816;9.482;2023-05-08T12:13:17;5.20;;;3.70;;
69956;SDS011;57283;54.816;9.482;2023-05-08T12:15:45;5.75;;;3.75;;
69956;SDS011;57283;54.816;9.482;2023-05-08T12:18:13;6.32;;;4.03;;
69956;SDS011;57283;54.816;9.482;2023-05-08T12:20:40;6.25;;;3.90;;
69956;SDS011;57283;54.816;9.482;2023-05-08T12:23:09;6.00;;;4.23;;
69956;SDS011;57283;54.816;9.482;2023-05-08T12:25:37;6.65;;;3.80;;
69956;SDS011;57283;54.816;9.482;2023-05-08T12:28:05;6.20;;;3.70;;
69956;SDS011;57283;54.816;9.482;2023-05-08T12:30:33;5.35;;;3.75;;
69956;SDS011;57283;54.816;9.482;2023-05-08T12:33:01;5.85;;;3.25;;
69956;SDS011;57283;54.816;9.482;2023-05-08T12:35:30;5.80;;;3.90;;
69956;SDS011;57283;54.816;9.482;2023-05-08T12:38:01;4.82;;;3.60;;
69956;SDS011;57283;54.816;9.482;2023-05-08T12:40:31;4.97;;;3.65;;
69956;SDS011;57283;54.816;9.482;2023-05-08T12:42:59;5.53;;;3.10;;
69956;SDS011;57283;54.816;9.482;2023-05-08T12:45:28;5.88;;;3.33;;
69956;SDS011;57283;54.816;9.482;2023-05-08T12:48:00;6.47;;;3.40;;
69956;SDS011;57283;54.816;9.482;2023-05-08T12:50:28;5.43;;;3.50;;
69956;SDS011;57283;54.816;9.482;2023-05-08T12:53:00;5.15;;;3.60;;
69956;SDS011;57283;54.816;9.482;2023-05-08T12:55:28;4.32;;;3.20;;
69956;SDS011;57283;54.816;9.482;2023-05-08T12:58:02;5.47;;;3.25;;
69956;SDS011;57283;54.816;9.482;2023-05-08T13:00:33;3.90;;;2.70;;
69956;SDS011;57283;54.816;9.482;2023-05-08T13:03:02;4.13;;;3.10;;
69956;SDS011;57283;54.816;9.482;2023-05-08T13:05:30;5.20;;;2.80;;
69956;SDS011;57283;54.816;9.482;2023-05-08T13:07:58;4.28;;;3.10;;
69956;SDS011;57283;54.816;9.482;2023-05-08T13:10:25;5.18;;;3.03;;
69956;SDS011;57283;54.816;9.482;2023-05-08T13:12:53;4.87;;;3.10;;
69956;SDS011;57283;54.816;9.482;2023-05-08T13:15:22;5.13;;;2.95;;
69956;SDS011;57283;54.816;9.482;2023-05-08T13:17:49;4.47;;;2.72;;
69956;SDS011;57283;54.816;9.482;2023-05-08T13:20:17;4.65;;;2.60;;
69956;SDS011;57283;54.816;9.482;2023-05-08T13:22:45;4.32;;;2.70;;
69956;SDS011;57283;54.816;9.482;2023-05-08T13:25:12;4.80;;;2.90;;
69956;SDS011;57283;54.816;9.482;2023-05-08T13:27:40;4.57;;;3.10;;
69956;SDS011;57283;54.816;9.482;2023-05-08T13:30:08;5.25;;;2.75;;
69956;SDS011;57283;54.816;9.482;2023-05-08T13:32:38;5.03;;;2.85;;
69956;SDS011;57283;54.816;9.482;2023-05-08T13:35:07;5.30;;;2.78;;
69956;SDS011;57283;54.816;9.482;2023-05-08T13:37:34;4.23;;;2.60;;
69956;SDS011;57283;54.816;9.482;2023-05-08T13:40:02;5.60;;;2.80;;
69956;SDS011;57283;54.816;9.482;2023-05-08T13:42:30;6.25;;;3.30;;
69956;SDS011;57283;54.816;9.482;2023-05-08T13:45:09;5.35;;;2.90;;
69956;SDS011;57283;54.816;9.482;2023-05-08T13:47:46;5.03;;;2.92;;
69956;SDS011;57283;54.816;9.482;2023-05-08T13:50:22;5.17;;;2.73;;
69956;SDS011;57283;54.816;9.482;2023-05-08T13:52:56;6.22;;;2.63;;
69956;SDS011;57283;54.816;9.482;2023-05-08T13:55:34;5.05;;;2.75;;
69956;SDS011;57283;54.816;9.482;2023-05-08T13:58:14;4.88;;;2.30;;
69956;SDS011;57283;54.816;9.482;2023-05-08T14:00:51;4.80;;;2.95;;
69956;SDS011;57283;54.816;9.482;2023-05-08T14:03:21;5.20;;;2.87;;
69956;SDS011;57283;54.816;9.482;2023-05-08T14:06:03;5.15;;;2.95;;
69956;SDS011;57283;54.816;9.482;2023-05-08T14:08:35;4.82;;;2.60;;
69956;SDS011;57283;54.816;9.482;2023-05-08T14:11:14;5.13;;;2.97;;
69956;SDS011;57283;54.816;9.482;2023-05-08T14:13:55;4.60;;;2.72;;
69956;SDS011;57283;54.816;9.482;2023-05-08T14:16:29;5.37;;;2.70;;
69956;SDS011;57283;54.816;9.482;2023-05-08T14:19:01;5.55;;;3.05;;
69956;SDS011;57283;54.816;9.482;2023-05-08T14:21:30;4.65;;;2.55;;
69956;SDS011;57283;54.816;9.482;2023-05-08T14:24:03;6.07;;;3.08;;
69956;SDS011;57283;54.816;9.482;2023-05-08T14:26:46;5.55;;;2.92;;
69956;SDS011;57283;54.816;9.482;2023-05-08T14:29:18;5.93;;;2.77;;
69956;SDS011;57283;54.816;9.482;2023-05-08T14:31:48;6.00;;;2.95;;
69956;SDS011;57283;54.816;9.482;2023-05-08T14:34:20;5.00;;;2.90;;
69956;SDS011;57283;54.816;9.482;2023-05-08T14:36:49;5.53;;;3.00;;
69956;SDS011;57283;54.816;9.482;2023-05-08T14:39:20;5.10;;;2.80;;
69956;SDS011;57283;54.816;9.482;2023-05-08T14:41:49;4.73;;;2.87;;
69956;SDS011;57283;54.816;9.482;2023-05-08T14:44:49;4.45;;;2.72;;
69956;SDS011;57283;54.816;9.482;2023-05-08T14:47:18;6.03;;;3.33;;
69956;SDS011;57283;54.816;9.482;2023-05-08T14:49:51;5.10;;;2.97;;
69956;SDS011;57283;54.816;9.482;2023-05-08T14:52:20;5.35;;;2.80;;
69956;SDS011;57283;54.816;9.482;2023-05-08T14:54:57;5.87;;;3.13;;
69956;SDS011;57283;54.816;9.482;2023-05-08T14:57:29;5.85;;;2.70;;
69956;SDS011;57283;54.816;9.482;2023-05-08T14:59:58;6.43;;;2.78;;
69956;SDS011;57283;54.816;9.482;2023-05-08T15:02:31;5.93;;;2.85;;
69956;SDS011;57283;54.816;9.482;2023-05-08T15:05:14;5.20;;;2.70;;
69956;SDS011;57283;54.816;9.482;2023-05-08T15:08:14;4.60;;;2.60;;
69956;SDS011;57283;54.816;9.482;2023-05-08T15:10:45;4.72;;;2.60;;